Flight Track Log - Related Links

Times and Time Zones

All times are in EDT time to prevent confusion due to time zone crossing. See the UAL274 flight status page for this flight to view local times or setup timezone preferences in your user account.

Time Position Orientation Groundspeed Altitude Reporting Facility
EDT Latitude Longitude Course Direction KTS MPH feet Rate Location/Type
Tue 10:35:29 PM 29.9558 -95.3492 334° Northwest 169 194 900  Level Houston Center
Tue 10:36:18 PM 29.9711 -95.3761 303° West 198 228 1,900 1,277 Climbing Houston Center
Tue 10:37:03 PM 30.0206 -95.3819 354° North 239 275 2,900 2,491 Climbing Houston Center
Tue 10:38:00 PM 30.2890 -95.5119 332° Northwest  Level FlightAware Approximate
Tue 10:38:04 PM 30.0956 -95.3933 353° North 261 300 6,300  Level Houston Center
Tue 10:39:00 PM 30.3914 -95.5730 334° Northwest  Level FlightAware Approximate
Tue 10:39:05 PM 30.1697 -95.4256 339° North 286 329 9,000  Level Houston Center
Tue 10:40:00 PM 30.4953 -95.6307 334° Northwest  Level FlightAware Approximate
Tue 10:40:06 PM 30.2436 -95.4706 332° Northwest 299 344 10,700  Level Houston Center
Tue 10:41:07 PM 30.3347 -95.5269 332° Northwest 365 420 11,200 1,574 Climbing Houston Center
Tue 10:42:08 PM 30.4328 -95.5894 331° Northwest 390 449 13,900 2,213 Climbing Houston Center
Tue 10:43:09 PM 30.5292 -95.6450 334° Northwest 392 451 15,700 1,131 Climbing Houston Center
Tue 10:44:10 PM 30.6356 -95.7036 335° Northwest 414 476 16,200 1,721 Climbing Houston Center
Tue 10:45:11 PM 30.7400 -95.7642 334° Northwest 423 487 19,200 2,311 Climbing Houston Center
Tue 10:46:12 PM 30.8617 -95.8269 336° Northwest 403 464 20,900 1,721 Climbing Houston Center
Tue 10:47:13 PM 30.9697 -95.8847 335° Northwest 413 475 22,700 1,686 Climbing Houston Center
Tue 10:48:13 PM 31.0794 -95.9450 335° Northwest 426 490 24,300 942 Climbing Houston Center
Tue 10:49:14 PM 31.1992 -95.9967 340° North 451 519 24,600 1,024 Climbing Houston Center
Tue 10:50:16 PM 31.3219 -96.0439 342° North 462 532 26,400 1,525 Climbing Houston Center
Tue 10:51:16 PM 31.4364 -96.0881 342° North 459 528 27,700 744 Climbing Houston Center
Tue 10:52:17 PM 31.5453 -96.1750 326° Northwest 475 547 27,900 148 Climbing Houston Center
Tue 10:53:18 PM 31.6497 -96.2803 319° Northwest 490 564 28,000 435 Climbing Houston Center
Tue 10:54:21 PM 31.7708 -96.4067 318° Northwest 497 572 28,800 927 Climbing Fort Worth Center
Tue 10:55:21 PM 31.8739 -96.5131 319° Northwest 497 572 29,900 1,150 Climbing Fort Worth Center
Tue 10:56:21 PM 31.9769 -96.6175 319° Northwest 497 572 31,100 1,750 Climbing Fort Worth Center
Tue 10:57:21 PM 32.0694 -96.7097 320° Northwest 468 539 33,400 1,200 Climbing Fort Worth Center
Tue 10:58:21 PM 32.1639 -96.8072 319° Northwest 452 520 33,500 100 Climbing Fort Worth Center
Tue 10:59:21 PM 32.2625 -96.9072 319° Northwest 452 520 33,600 250 Climbing Fort Worth Center
Tue 11:00:21 PM 32.3631 -97.0100 319° Northwest 463 533 34,000 200 Climbing Fort Worth Center
Tue 11:01:21 PM 32.4594 -97.1106 319° Northwest 463 533 34,000  Level Fort Worth Center
Tue 11:02:22 PM 32.5597 -97.2139 319° Northwest 463 533 34,000  Level Fort Worth Center
Tue 11:03:22 PM 32.6558 -97.3147 319° Northwest 463 533 34,000  Level Fort Worth Center
Tue 11:04:21 PM 32.7519 -97.4183 318° Northwest 463 533 34,000  Level Fort Worth Center
Tue 11:05:21 PM 32.8522 -97.5222 319° Northwest 468 539 34,000  Level Fort Worth Center
Tue 11:06:21 PM 32.9542 -97.6239 320° Northwest 468 539 34,000  Level Fort Worth Center
Tue 11:07:21 PM 33.0417 -97.7133 319° Northwest 468 539 34,000  Level Fort Worth Center
Tue 11:08:21 PM 33.1417 -97.8178 319° Northwest 468 539 34,000  Level Fort Worth Center
Tue 11:09:21 PM 33.2394 -97.9200 319° Northwest 468 539 34,000  Level Fort Worth Center
Tue 11:10:21 PM 33.3369 -98.0225 319° Northwest 463 533 34,000  Level Fort Worth Center
Tue 11:11:21 PM 33.4325 -98.1253 318° Northwest 463 533 34,000  Level Fort Worth Center
Tue 11:12:21 PM 33.5300 -98.2283 319° Northwest 463 533 34,000  Level Fort Worth Center
Tue 11:13:21 PM 33.6314 -98.3339 319° Northwest 469 540 34,000  Level Fort Worth Center
Tue 11:14:21 PM 33.7331 -98.4400 319° Northwest 476 548 34,000  Level Fort Worth Center
Tue 11:15:21 PM 33.8300 -98.5461 318° Northwest 476 548 34,000  Level Fort Worth Center
Tue 11:16:21 PM 33.9250 -98.6550 316° Northwest 471 542 34,000  Level Fort Worth Center
Tue 11:17:21 PM 34.0264 -98.7567 320° Northwest 471 542 34,000  Level Fort Worth Center
Tue 11:18:21 PM 34.1314 -98.8764 317° Northwest 465 535 34,000  Level Fort Worth Center
Tue 11:19:21 PM 34.2303 -98.9836 318° Northwest 470 541 34,000  Level Fort Worth Center
Tue 11:20:21 PM 34.3289 -99.0908 318° Northwest 470 541 34,000  Level Fort Worth Center
Tue 11:21:21 PM 34.4153 -99.1781 320° Northwest 462 532 34,000  Level Fort Worth Center
Tue 11:22:21 PM 34.5139 -99.2886 317° Northwest 462 532 34,000  Level Fort Worth Center
Tue 11:23:21 PM 34.6103 -99.3942 318° Northwest 462 532 34,000  Level Fort Worth Center
Tue 11:24:21 PM 34.7067 -99.5050 317° Northwest 470 541 34,000  Level Fort Worth Center
Tue 11:26:22 PM 34.9019 -99.7194 318° Northwest 471 542 34,000  Level Albuquerque Center
Tue 11:27:23 PM 35.0000 -99.8292 318° Northwest 473 544 34,000  Level Albuquerque Center
Tue 11:28:24 PM 35.0978 -99.9378 318° Northwest 473 544 34,000  Level Albuquerque Center
Tue 11:29:25 PM 35.1947 -100.0489 317° Northwest 474 545 34,000  Level Albuquerque Center
Tue 11:30:26 PM 35.2958 -100.1558 319° Northwest 475 547 34,000  Level Albuquerque Center
Tue 11:31:27 PM 35.4067 -100.2517 325° Northwest 481 554 34,000  Level Albuquerque Center
Tue 11:32:28 PM 35.5178 -100.3475 325° Northwest 483 556 34,000  Level Albuquerque Center
Tue 11:33:29 PM 35.6278 -100.4436 325° Northwest 482 555 34,000  Level Albuquerque Center
Tue 11:34:30 PM 35.7600 -100.5578 325° Northwest 481 554 34,000  Level Albuquerque Center
Tue 11:35:31 PM 35.8667 -100.6539 324° Northwest 477 549 34,000  Level Albuquerque Center
Tue 11:36:33 PM 35.9744 -100.7500 324° Northwest 475 547 34,000  Level Albuquerque Center
Tue 11:37:34 PM 36.0911 -100.8494 325° Northwest 491 565 34,000  Level Albuquerque Center
Tue 11:38:35 PM 36.2017 -100.9469 325° Northwest 489 563 34,000  Level Albuquerque Center
Tue 11:39:36 PM 36.3061 -101.0400 324° Northwest 486 559 34,000  Level Albuquerque Center
Tue 11:40:37 PM 36.4286 -101.1492 324° Northwest 485 558 34,000  Level Albuquerque Center
Tue 11:41:38 PM 36.5333 -101.2442 324° Northwest 485 558 34,000  Level Albuquerque Center
Tue 11:42:38 PM 36.6394 -101.3394 324° Northwest 486 559 34,000  Level Kansas City Center
Tue 11:43:39 PM 36.7625 -101.4500 324° Northwest 487 560 34,000  Level Kansas City Center
Tue 11:44:40 PM 36.8681 -101.5456 324° Northwest 487 560 34,000  Level Kansas City Center
Tue 11:45:41 PM 36.9733 -101.6414 324° Northwest 488 562 34,000  Level Kansas City Center
Tue 11:46:42 PM 37.0967 -101.7531 324° Northwest 488 562 34,000  Level Kansas City Center
Tue 11:47:42 PM 37.2028 -101.8497 324° Northwest 489 563 34,000  Level Kansas City Center
Tue 11:48:43 PM 37.3078 -101.9467 324° Northwest 488 562 34,000  Level Kansas City Center
Tue 11:49:44 PM 37.4308 -102.0608 324° Northwest 490 564 34,000  Level Kansas City Center
Tue 11:50:45 PM 37.5372 -102.1583 324° Northwest 492 566 34,000  Level Kansas City Center
Tue 11:51:47 PM 37.6403 -102.2558 323° Northwest 485 558 34,000  Level Denver Center
Tue 11:53:00 PM 37.7625 -102.3731 323° Northwest 492 566 34,000  Level Denver Center
Tue 11:54:13 PM 37.8792 -102.5047 318° Northwest 492 566 34,000  Level Denver Center
Tue 11:55:14 PM 38.0100 -102.6503 319° Northwest 491 565 34,000  Level Denver Center
Tue 11:56:27 PM 38.1058 -102.7594 318° Northwest 495 570 34,000  Level Denver Center
Tue 11:57:28 PM 38.2369 -102.9064 319° Northwest 493 567 34,000  Level Denver Center
Tue 11:58:29 PM 38.3353 -103.0172 319° Northwest 494 568 34,000  Level Denver Center
Tue 11:59:29 PM 38.4503 -103.1475 318° Northwest 494 568 34,000 -198 Level Denver Center
Wed 12:00:30 AM 38.5456 -103.2600 317° Northwest 490 564 33,600 -1,131 Descending Denver Center
Wed 12:01:31 AM 38.6483 -103.3778 318° Northwest 477 549 31,700 -1,925 Descending Denver Center
Wed 12:02:44 AM 38.7672 -103.5117 319° Northwest 481 554 29,300 -1,970 Descending Denver Center
Wed 12:03:45 AM 38.8708 -103.6300 318° Northwest 489 563 27,300 -1,967 Descending Denver Center
Wed 12:04:46 AM 38.9725 -103.7503 317° Northwest 495 570 25,300 -1,934 Descending Denver Center
Wed 12:05:46 AM 39.0731 -103.8667 318° Northwest 491 565 23,400 -1,587 Descending Denver Center
Wed 12:06:47 AM 39.1656 -103.9889 314° West 478 550 22,100 -1,574 Descending Denver Center
Wed 12:07:48 AM 39.2589 -104.1231 312° West 473 544 20,200 -1,967 Descending Denver Center
Wed 12:08:49 AM 39.3639 -104.2156 326° Northwest 463 533 18,100 -2,262 Descending Denver Center
Wed 12:09:50 AM 39.4686 -104.2944 330° Northwest 437 503 15,600 -2,083 Descending Denver Center
Wed 12:10:50 AM 39.5647 -104.3758 327° Northwest 411 473 13,900 -1,289 Descending Denver Center
Wed 12:11:51 AM 39.6594 -104.4517 328° Northwest 405 466 13,000 -492 Descending Denver Center
Wed 12:12:52 AM 39.7628 -104.5281 330° Northwest 406 467 12,900 -942 Descending Denver Center
Wed 12:13:52 AM 39.8719 -104.5206 North 399 459 11,100 -950 Descending Denver Center
Wed 12:14:52 AM 39.9667 -104.5167 North 347 399 11,000 -750 Descending Denver TRACON
Wed 12:15:52 AM 40.0500 -104.5333 351° North 306 352 9,600 -1,574 Descending Denver TRACON
Wed 12:16:54 AM 40.0489 -104.6314 269° West 267 307 7,800 -1,024 Descending Denver Center
Wed 12:17:55 AM 40.0150 -104.6825 229° Southwest 183 211 7,500 -541 Descending Denver Center
Wed 12:18:56 AM 39.9681 -104.6856 183° South 169 194 6,700 -787 Descending Denver Center
Wed 12:19:57 AM 39.9225 -104.6864 181° South 165 190 5,900 -694 Descending Denver Center
Wed 12:20:57 AM 39.8800 -104.6872 181° South 163 188 5,300 -600 Descending Denver Center

Login

Don't have an account? Register now (free) for customized features, flight alerts, and more!